Map

Track Data

SID SEASON NUMBER BASIN SUBBASIN NAME ISO_TIME NATURE LAT LON WMO_WIND WMO_PRES WMO_AGENCY TRACK_TYPE DIST2LAND LANDFALL IFLAG USA_AGENCY USA_ATCF_ID USA_LAT USA_LON USA_RECORD USA_STATUS USA_WIND USA_PRES USA_SSHS USA_R34_NE USA_R34_SE USA_R34_SW USA_R34_NW USA_R50_NE USA_R50_SE USA_R50_SW USA_R50_NW USA_R64_NE USA_R64_SE USA_R64_SW USA_R64_NW USA_POCI USA_ROCI USA_RMW USA_EYE TOKYO_LAT TOKYO_LON TOKYO_GRADE TOKYO_WIND TOKYO_PRES TOKYO_R50_DIR TOKYO_R50_LONG TOKYO_R50_SHORT TOKYO_R30_DIR TOKYO_R30_LONG TOKYO_R30_SHORT TOKYO_LAND CMA_LAT CMA_LON CMA_CAT CMA_WIND CMA_PRES HKO_LAT HKO_LON HKO_CAT HKO_WIND HKO_PRES NEWDELHI_LAT NEWDELHI_LON NEWDELHI_GRADE NEWDELHI_WIND NEWDELHI_PRES NEWDELHI_CI NEWDELHI_DP NEWDELHI_POCI REUNION_LAT REUNION_LON REUNION_TYPE REUNION_WIND REUNION_PRES REUNION_TNUM REUNION_CI REUNION_RMW REUNION_R34_NE REUNION_R34_SE REUNION_R34_SW REUNION_R34_NW REUNION_R50_NE REUNION_R50_SE REUNION_R50_SW REUNION_R50_NW REUNION_R64_NE REUNION_R64_SE REUNION_R64_SW REUNION_R64_NW BOM_LAT BOM_LON BOM_TYPE BOM_WIND BOM_PRES BOM_TNUM BOM_CI BOM_RMW BOM_R34_NE BOM_R34_SE BOM_R34_SW BOM_R34_NW BOM_R50_NE BOM_R50_SE BOM_R50_SW BOM_R50_NW BOM_R64_NE BOM_R64_SE BOM_R64_SW BOM_R64_NW BOM_ROCI BOM_POCI BOM_EYE BOM_POS_METHOD BOM_PRES_METHOD NADI_LAT NADI_LON NADI_CAT NADI_WIND NADI_PRES WELLINGTON_LAT WELLINGTON_LON WELLINGTON_WIND WELLINGTON_PRES DS824_LAT DS824_LON DS824_STAGE DS824_WIND DS824_PRES TD9636_LAT TD9636_LON TD9636_STAGE TD9636_WIND TD9636_PRES TD9635_LAT TD9635_LON TD9635_WIND TD9635_PRES TD9635_ROCI NEUMANN_LAT NEUMANN_LON NEUMANN_CLASS NEUMANN_WIND NEUMANN_PRES MLC_LAT MLC_LON MLC_CLASS MLC_WIND MLC_PRES USA_GUST BOM_GUST BOM_GUST_PER REUNION_GUST REUNION_GUST_PER USA_SEAHGT USA_SEARAD_NE USA_SEARAD_SE USA_SEARAD_SW USA_SEARAD_NW STORM_SPEED STORM_DIR
1961029S14161 1961 14 SP MM NOT_NAMED 1961-01-28 23:00:00 NR -14.2000 161.400 main 383 383 __________O___ -1 -14.2000 161.400 1 6 259
1961029S14161 1961 14 SP MM NOT_NAMED 1961-01-29 00:00:00 TS -14.2187 161.302 main 384 384 _________OP___ -1 -14.2000 161.300 TC -14.2280 161.302 1 6 254
1961029S14161 1961 14 SP MM NOT_NAMED 1961-01-29 03:00:00 TS -14.3105 160.998 main 401 401 _________PP___ -1 -14.3051 160.973 TC -14.3140 161.016 1 6 251
1961029S14161 1961 14 SP MM NOT_NAMED 1961-01-29 06:00:00 TS -14.4046 160.729 main 420 420 _________OP___ -1 -14.4000 160.700 TC -14.4081 160.750 1 5 248
1961029S14161 1961 14 SP MM NOT_NAMED 1961-01-29 09:00:00 TS -14.5007 160.521 main 437 437 _________PP___ -1 -14.4849 160.520 TC -14.5165 160.523 1 4 240
1961029S14161 1961 14 SP MM NOT_NAMED 1961-01-29 11:00:00 TS -14.5776 160.418 main 451 451 _________PO___ -1 -14.5552 160.436 TC -14.6000 160.400 1 4 230
1961029S14161 1961 14 SP MM NOT_NAMED 1961-01-29 12:00:00 TS -14.6229 160.374 main 451 451 _________OP___ -1 -14.6000 160.400 TC -14.6457 160.349 1 4 215
1961029S14161 1961 14 SP MM NOT_NAMED 1961-01-29 15:00:00 TS -14.7918 160.261 main 476 476 _________PP___ -1 -14.7850 160.292 TC -14.7985 160.230 1 4 208
1961029S14161 1961 14 SP MM NOT_NAMED 1961-01-29 18:00:00 TS -14.9862 160.171 main 501 501 _________OP___ -1 -15.0000 160.200 TC -14.9723 160.143 1 4 204
1961029S14161 1961 14 SP MM NOT_NAMED 1961-01-29 21:00:00 TS -15.1820 160.085 main 526 526 _________PP___ -1 -15.2000 160.107 TC -15.1639 160.062 1 4 204
1961029S14161 1961 14 SP MM NOT_NAMED 1961-01-29 23:00:00 TS -15.3167 160.020 main 540 540 _________PO___ -1 -15.3333 160.039 TC -15.3000 160.000 1 5 206
1961029S14161 1961 14 SP EA NOT_NAMED 1961-01-30 00:00:00 TS -15.3854 159.978 main 550 550 _________OP___ -1 -15.4000 160.000 TC -15.3708 159.957 1 5 213
1961029S14161 1961 14 SP EA NOT_NAMED 1961-01-30 03:00:00 TS -15.5938 159.837 main 579 579 _________PP___ -1 -15.5925 159.857 TC -15.5951 159.816 1 5 214
1961029S14161 1961 14 SP EA NOT_NAMED 1961-01-30 06:00:00 TS -15.8139 159.682 main 604 604 _________OP___ -1 -15.8000 159.700 TC -15.8277 159.663 1 6 213
1961029S14161 1961 14 SP EA NOT_NAMED 1961-01-30 09:00:00 TS -16.0568 159.528 main 643 643 _________PP___ -1 -16.0575 159.550 TC -16.0562 159.505 1 6 212
1961029S14161 1961 14 SP EA NOT_NAMED 1961-01-30 11:00:00 TS -16.2127 159.425 main 657 657 _________PO___ -1 -16.2255 159.450 TC -16.2000 159.400 1 5 214
1961029S14161 1961 14 SP EA NOT_NAMED 1961-01-30 12:00:00 TS -16.2801 159.374 main 660 660 _________OP___ -1 -16.3000 159.400 TC -16.2601 159.349 1 5 220
1961029S14161 1961 14 SP EA NOT_NAMED 1961-01-30 15:00:00 TS -16.4424 159.222 main 668 661 _________PP___ -1 -16.4575 159.250 TC -16.4274 159.194 1 4 223
1961029S14161 1961 14 SP EA NOT_NAMED 1961-01-30 18:00:00 TS -16.5948 159.071 main 662 662 _________OP___ -1 -16.6000 159.100 TC -16.5897 159.042 1 4 221
1961029S14161 1961 14 SP EA NOT_NAMED 1961-01-30 21:00:00 TS -16.7754 158.922 main 665 658 _________PP___ -1 -16.7850 158.950 TC -16.7657 158.894 1 5 216
1961029S14161 1961 14 SP EA NOT_NAMED 1961-01-30 23:00:00 TS -16.9125 158.825 main 667 660 _________PO___ -1 -16.9250 158.850 TC -16.9000 158.800 1 5 213
1961029S14161 1961 14 SP EA NOT_NAMED 1961-01-31 00:00:00 TS -16.9897 158.776 main 660 656 _________OP___ -1 -17.0000 158.800 TC -16.9795 158.751 1 6 210
1961029S14161 1961 14 SP EA NOT_NAMED 1961-01-31 03:00:00 TS -17.2378 158.626 main 665 654 _________PP___ -1 -17.2350 158.643 TC -17.2405 158.609 1 6 208
1961029S14161 1961 14 SP EA NOT_NAMED 1961-01-31 06:00:00 TS -17.5116 158.489 main 657 651 _________OP___ -1 -17.5000 158.500 TC -17.5232 158.478 1 6 203
1961029S14161 1961 14 SP EA NOT_NAMED 1961-01-31 09:00:00 TS -17.8059 158.374 main 651 646 _________PP___ -1 -17.8000 158.385 TC -17.8119 158.364 1 6 199
1961029S14161 1961 14 SP EA NOT_NAMED 1961-01-31 11:00:00 TS -18.0015 158.312 main 651 647 _________PO___ -1 -18.0031 158.325 TC -18.0000 158.300 1 6 197
1961029S14161 1961 14 SP EA NOT_NAMED 1961-01-31 12:00:00 TS -18.0872 158.288 main 647 642 _________OP___ -1 -18.1000 158.300 TC -18.0744 158.277 1 5 194
1961029S14161 1961 14 SP EA NOT_NAMED 1961-01-31 15:00:00 TS -18.3222 158.234 main 648 640 _________PP___ -1 -18.3575 158.242 TC -18.2868 158.225 1 5 191
1961029S14161 1961 14 SP EA NOT_NAMED 1961-01-31 18:00:00 TS -18.5551 158.193 main 637 630 _________OP___ -1 -18.6000 158.200 TC -18.5102 158.187 1 5 189
1961029S14161 1961 14 SP EA NOT_NAMED 1961-01-31 21:00:00 TS -18.7994 158.154 main 630 630 _________PP___ -1 -18.8200 158.165 TC -18.7788 158.142 1 5 191
1961029S14161 1961 14 SP EA NOT_NAMED 1961-01-31 23:00:00 TS -18.9969 158.114 main 634 632 _________PO___ -1 -18.9938 158.128 TC -19.0000 158.100 1 6 193
1961029S14161 1961 14 SP EA NOT_NAMED 1961-02-01 00:00:00 TS -19.1123 158.079 main 632 629 _________OP___ -1 -19.1000 158.100 TC -19.1246 158.058 1 8 198
1961029S14161 1961 14 SP EA NOT_NAMED 1961-02-01 03:00:00 TS -19.5237 157.934 main 643 639 _________PP___ -1 -19.4975 157.958 TC -19.5499 157.910 1 10 197
1961029S14161 1961 14 SP EA NOT_NAMED 1961-02-01 06:00:00 TS -20.0225 157.779 main 647 647 _________OP___ -1 -20.0000 157.800 TC -20.0450 157.758 1 11 194
1961029S14161 1961 14 SP EA NOT_NAMED 1961-02-01 09:00:00 TS -20.5816 157.652 main 651 611 _________PP___ -1 -20.5625 157.663 TC -20.6006 157.641 1 12 189
1961029S14161 1961 14 SP EA NOT_NAMED 1961-02-01 11:00:00 TS -20.9904 157.604 main 611 596 _________PO___ -1 -20.9807 157.608 TC -21.0000 157.600 1 13 183
1961029S14161 1961 14 SP EA NOT_NAMED 1961-02-01 12:00:00 TS -21.2063 157.603 main 596 553 _________OP___ -1 -21.2000 157.600 TC -21.2126 157.605 1 14 176
1961029S14161 1961 14 SP EA NOT_NAMED 1961-02-01 15:00:00 TS -21.8931 157.671 main 553 519 _________PP___ -1 -21.8925 157.670 TC -21.8936 157.671 1 14 173
1961029S14161 1961 14 SP EA NOT_NAMED 1961-02-01 18:00:00 TS -22.6002 157.794 main 519 498 _________OP___ -1 -22.6000 157.800 TC -22.6005 157.788 1 14 171
1961029S14161 1961 14 SP EA NOT_NAMED 1961-02-01 21:00:00 TS -23.2853 157.914 main 494 485 _________PP___ -1 -23.2875 157.907 TC -23.2831 157.920 1 13 171
1961029S14161 1961 14 SP EA NOT_NAMED 1961-02-01 23:00:00 TS -23.7044 157.986 main 487 481 _________PO___ -1 -23.7088 157.972 TC -23.7000 158.000 1 12 172
1961029S14161 1961 14 SP EA NOT_NAMED 1961-02-02 00:00:00 TS -23.8931 158.009 main 481 471 _________OP___ -1 -23.9000 158.000 TC -23.8862 158.018 1 10 174
1961029S14161 1961 14 SP EA NOT_NAMED 1961-02-02 03:00:00 TS -24.3927 158.057 main 479 474 _________PP___ -1 -24.3875 158.058 TC -24.3980 158.056 1 9 175
1961029S14161 1961 14 SP EA NOT_NAMED 1961-02-02 06:00:00 TS -24.8245 158.096 main 474 473 _________OP___ -1 -24.8000 158.100 TC -24.8490 158.091 1 9 175
1961029S14161 1961 14 SP EA NOT_NAMED 1961-02-02 09:00:00 TS -25.2372 158.136 main 473 473 _________PP___ -1 -25.2224 158.128 TC -25.2520 158.144 1 8 173
1961029S14161 1961 14 SP EA NOT_NAMED 1961-02-02 11:00:00 TS -25.4903 158.183 main 485 485 _________PO___ -1 -25.4807 158.166 TC -25.5000 158.200 1 8 168
1961029S14161 1961 14 SP EA NOT_NAMED 1961-02-02 12:00:00 TS -25.6070 158.218 main 486 486 _________OP___ -1 -25.6000 158.200 TC -25.6140 158.237 1 7 158
1961029S14161 1961 14 SP EA NOT_NAMED 1961-02-02 15:00:00 TS -25.9119 158.375 main 511 511 _________PP___ -1 -25.9000 158.378 TC -25.9239 158.373 1 7 152
1961029S14161 1961 14 SP EA NOT_NAMED 1961-02-02 18:00:00 TS -26.2098 158.572 main 537 537 _________OP___ -1 -26.2000 158.600 TC -26.2196 158.545 1 7 151
1961029S14161 1961 14 SP EA NOT_NAMED 1961-02-02 21:00:00 TS -26.5574 158.771 main 542 539 _________PP___ -1 -26.5699 158.793 TC -26.5450 158.748 1 8 153
1961029S14161 1961 14 SP EA NOT_NAMED 1961-02-02 23:00:00 TS -26.8250 158.914 main 545 541 _________PO___ -1 -26.8500 158.928 TC -26.8000 158.900 1 9 155
1961029S14161 1961 14 SP EA NOT_NAMED 1961-02-03 00:00:00 TS -26.9753 158.984 main 548 545 _________OP___ -1 -27.0000 159.000 TC -26.9506 158.968 1 10 157
1961029S14161 1961 14 SP EA NOT_NAMED 1961-02-03 03:00:00 TS -27.4604 159.212 main 555 555 _________PP___ -1 -27.4700 159.235 TC -27.4508 159.188 1 11 157
1961029S14161 1961 14 SP EA NOT_NAMED 1961-02-03 06:00:00 TS -28.0035 159.473 main 578 577 _________OP___ -1 -28.0000 159.500 TC -28.0070 159.446 1 12 157
1961029S14161 1961 14 SP EA NOT_NAMED 1961-02-03 09:00:00 TS -28.5913 159.767 main 604 603 _________PP___ -1 -28.5849 159.778 TC -28.5977 159.756 1 13 155
1961029S14161 1961 14 SP EA NOT_NAMED 1961-02-03 11:00:00 TS -28.9973 159.993 main 621 621 _________PO___ -1 -28.9947 159.986 TC -29.0000 160.000 1 14 154
1961029S14161 1961 14 SP MM NOT_NAMED 1961-02-03 12:00:00 TS -29.1956 160.105 main 631 631 _________OP___ -1 -29.2000 160.100 TC -29.1913 160.111 1 13 153
1961029S14161 1961 14 SP MM NOT_NAMED 1961-02-03 15:00:00 TS -29.7875 160.461 main 675 675 _________PP___ -1 -29.7995 160.441 TC -29.7754 160.482 1 14 149
1961029S14161 1961 14 SP MM NOT_NAMED 1961-02-03 18:00:00 TS -30.3871 160.920 main 723 723 _________OP___ -1 -30.4000 160.900 TC -30.3741 160.939 1 15 143
1961029S14161 1961 14 SP MM NOT_NAMED 1961-02-03 21:00:00 TS -30.9926 161.513 main 794 794 _________PP___ -1 -30.9993 161.504 TC -30.9860 161.522 1 17 137
1961029S14161 1961 14 SP MM NOT_NAMED 1961-02-03 23:00:00 TS -31.3997 162.006 main 845 845 _________PO___ -1 -31.3995 162.012 TC -31.4000 162.000 1 18 132
1961029S14161 1961 14 SP MM NOT_NAMED 1961-02-04 00:00:00 TS -31.5971 162.293 main 873 873 _________OP___ -1 -31.6000 162.300 TC -31.5942 162.285 1 20 126
1961029S14161 1961 14 SP MM NOT_NAMED 1961-02-04 03:00:00 TS -32.1846 163.282 main 899 789 _________PP___ -1 -32.1928 163.298 TC -32.1765 163.266 1 21 124
1961029S14161 1961 14 SP MM NOT_NAMED 1961-02-04 06:00:00 TS -32.7890 164.381 main 780 673 _________OP___ -1 -32.8000 164.400 TC -32.7780 164.363 1 22 124
1961029S14161 1961 14 SP MM NOT_NAMED 1961-02-04 09:00:00 TS -33.4078 165.469 main 664 601 _________PP___ -1 -33.3892 165.453 TC -33.4265 165.485 1 22 126
1961029S14161 1961 14 SP MM NOT_NAMED 1961-02-04 11:00:00 TS -33.8701 166.176 main 591 560 _________PO___ -1 -33.8403 166.152 TC -33.9000 166.200 1 23 130
1961029S14161 1961 14 SP MM NOT_NAMED 1961-02-04 12:00:00 TS -34.1445 166.530 main 560 460 _________OP___ -1 -34.1000 166.500 TC -34.1889 166.560 1 26 136
1961029S14161 1961 14 SP MM NOT_NAMED 1961-02-04 15:00:00 TS -35.1089 167.619 main 460 407 _________PP___ -1 -35.0931 167.614 TC -35.1248 167.624 1 26 139
1961029S14161 1961 14 SP MM NOT_NAMED 1961-02-04 18:00:00 TS -36.0884 168.594 main 403 387 _________OP___ -1 -36.1000 168.600 TC -36.0768 168.589 1 23 142
1961029S14161 1961 14 SP MM NOT_NAMED 1961-02-04 21:00:00 TS -36.9192 169.360 main 384 381 _________PP___ -1 -36.9041 169.366 TC -36.9344 169.355 1 19 145
1961029S14161 1961 14 SP MM NOT_NAMED 1961-02-04 23:00:00 TS -37.3639 169.699 main 390 390 _________PO___ -1 -37.3278 169.698 TC -37.4000 169.700 2 14 150
1961029S14161 1961 14 SP MM NOT_NAMED 1961-02-05 00:00:00 TS -37.5338 169.803 main 390 372 _________OP___ -1 -37.5000 169.800 TC -37.5676 169.806 2 8 164
1961029S14161 1961 14 SP MM NOT_NAMED 1961-02-05 03:00:00 TS -37.9055 169.894 main 372 365 _________PP___ -1 -37.8743 169.887 TC -37.9367 169.901 2 6 186
1961029S14161 1961 14 SP MM NOT_NAMED 1961-02-05 06:00:00 TS -38.1302 169.720 main 370 361 _________OP___ -1 -38.1000 169.700 TC -38.1605 169.741 2 5 222
1961029S14161 1961 14 SP MM NOT_NAMED 1961-02-05 09:00:00 TS -38.3120 169.431 main 370 366 _________PP___ -1 -38.3152 169.430 TC -38.3088 169.433 2 6 234
1961029S14161 1961 14 SP MM NOT_NAMED 1961-02-05 11:00:00 TS -38.4193 169.204 main 372 369 _________PO___ -1 -38.4387 169.207 TC -38.4000 169.200 2 6 239
1961029S14161 1961 14 SP MM NOT_NAMED 1961-02-05 12:00:00 TS -38.4718 169.092 main 369 369 _________OP___ -1 -38.5000 169.100 TC -38.4507 169.087 2 6 235
1961029S14161 1961 14 SP MM NOT_NAMED 1961-02-05 15:00:00 TS -38.6492 168.787 main 380 372 _________PP___ -1 -38.6949 168.828 TC -38.6263 168.767 2 6 231
1961029S14161 1961 14 SP MM NOT_NAMED 1961-02-05 18:00:00 TS -38.8470 168.502 main 385 378 _________OP___ -1 -38.9000 168.600 TC -38.8293 168.470 2 6 229
1961029S14161 1961 14 SP MM NOT_NAMED 1961-02-05 21:00:00 NR -39.0492 168.186 main 393 387 __________P___ -1 TC -39.0492 168.186 2 6 228
1961029S14161 1961 14 SP MM NOT_NAMED 1961-02-05 23:00:00 NR -39.2000 168.000 main 395 __________O___ -1 TC -39.2000 168.000 2 6 224

Digital Typhoon Data and Search

About IBTrACS Database

This database is a web-friendly format of International Best Track Archive for Climate Stewardship (IBTrACS), a global best track data archive curated by NOAA dating back to 1842.

Updated: 2021-12-08